Time;durP1;ratioP1;P1;durP2;ratioP2;P2;SDS_P1;SDS_P2;PMS_P1;PMS_P2;Temp;Humidity;BMP_temperature;BMP_pressure;BME280_temperature;BME280_humidity;BME280_pressure;Samples;Min_cycle;Max_cycle;Signal;HPM_P1;HPM_P2
2023/07/21 00:01:48;;;;;;;7.85;4.15;;;;;;;23.70;52.37;94811.16;5114111;28;20024;-83
2023/07/21 00:04:14;;;;;;;6.47;4.22;;;;;;;23.70;52.67;94811.16;5108758;28;20043;-83
2023/07/21 00:06:43;;;;;;;8.15;4.07;;;;;;;23.66;52.64;94809.91;5108733;28;20531;-84
2023/07/21 00:09:11;;;;;;;8.75;4.20;;;;;;;23.65;52.66;94814.78;5107602;28;20031;-84
2023/07/21 00:11:38;;;;;;;5.60;3.40;;;;;;;23.65;52.85;94819.63;5108803;28;20027;-84
2023/07/21 00:14:07;;;;;;;8.45;4.57;;;;;;;23.58;53.38;94802.06;5107242;28;20024;-84
2023/07/21 00:16:33;;;;;;;5.65;3.90;;;;;;;23.59;53.40;94805.63;5108495;28;20092;-83
2023/07/21 00:18:58;;;;;;;6.47;4.22;;;;;;;23.58;53.17;94806.91;5107338;28;20570;-84
2023/07/21 00:21:24;;;;;;;6.18;4.85;;;;;;;23.60;52.89;94798.72;5106764;28;20020;-84
2023/07/21 00:23:50;;;;;;;6.22;4.90;;;;;;;23.58;52.84;94784.47;5107765;28;20073;-84
2023/07/21 00:26:16;;;;;;;11.88;5.57;;;;;;;23.52;52.89;94776.13;5107214;28;20036;-84
2023/07/21 00:28:42;;;;;;;5.88;5.15;;;;;;;23.52;52.76;94780.97;5107859;28;20076;-84
2023/07/21 00:31:07;;;;;;;7.60;4.43;;;;;;;23.47;52.70;94795.81;5106874;28;20449;-84
2023/07/21 00:33:33;;;;;;;7.35;4.97;;;;;;;23.39;53.09;94792.81;5107913;28;20027;-84
2023/07/21 00:35:58;;;;;;;7.32;4.93;;;;;;;23.38;53.13;94796.91;5107260;28;20020;-84
2023/07/21 00:38:25;;;;;;;7.85;4.80;;;;;;;23.38;53.36;94791.28;5108060;28;20023;-85
2023/07/21 00:40:50;;;;;;;7.32;4.53;;;;;;;23.39;53.40;94797.66;5107402;28;20024;-84
2023/07/21 00:43:18;;;;;;;6.38;4.32;;;;;;;23.34;53.73;94793.66;5107133;28;20020;-84
2023/07/21 00:45:44;;;;;;;8.23;4.80;;;;;;;23.29;53.95;94791.66;5107448;28;20088;-84
2023/07/21 00:48:10;;;;;;;6.35;4.43;;;;;;;23.24;54.10;94793.22;5106902;28;20031;-84
2023/07/21 00:50:46;;;;;;;5.60;4.53;;;;;;;23.27;54.32;94788.59;5123931;27;20027;-84
2023/07/21 00:53:12;;;;;;;6.10;4.55;;;;;;;23.26;54.20;94781.47;5110242;28;20034;-84
2023/07/21 00:55:38;;;;;;;16.25;4.72;;;;;;;23.27;54.25;94766.91;5108596;28;20031;-84
2023/07/21 00:58:07;;;;;;;8.70;4.30;;;;;;;23.23;53.88;94772.06;5109710;28;20039;-83
2023/07/21 01:00:33;;;;;;;9.88;5.18;;;;;;;23.20;54.15;94763.94;5107365;28;20020;-83
2023/07/21 01:03:01;;;;;;;10.90;4.80;;;;;;;23.16;54.51;94760.66;5107161;28;20031;-83
2023/07/21 01:05:27;;;;;;;10.43;4.35;;;;;;;23.14;54.23;94749.97;5122621;27;20036;-83
2023/07/21 01:07:53;;;;;;;8.05;4.30;;;;;;;23.10;55.22;94743.13;5105812;28;20069;-83
2023/07/21 01:10:20;;;;;;;7.75;4.50;;;;;;;23.04;55.26;94740.38;5121847;27;20453;-83
2023/07/21 01:12:46;;;;;;;7.90;4.30;;;;;;;23.03;55.17;94734.03;5107518;28;20106;-83
2023/07/21 01:15:11;;;;;;;6.43;3.65;;;;;;;22.97;55.61;94736.13;5104975;28;20489;-83
2023/07/21 01:17:38;;;;;;;8.68;4.25;;;;;;;22.91;55.97;94734.66;5107472;28;20071;-83
2023/07/21 01:20:04;;;;;;;6.28;4.00;;;;;;;22.88;55.95;94736.47;5122559;27;20088;-85
2023/07/21 01:22:36;;;;;;;6.65;4.55;;;;;;;22.89;55.69;94735.19;5104990;28;20332;-85
2023/07/21 01:25:07;;;;;;;6.75;4.15;;;;;;;22.86;55.81;94738.22;5107226;28;20020;-84
2023/07/21 01:27:38;;;;;;;6.57;4.10;;;;;;;22.88;55.93;94738.50;5106070;28;20490;-84
2023/07/21 01:30:06;;;;;;;7.28;4.38;;;;;;;22.80;56.07;94747.44;5105670;28;20020;-85
2023/07/21 01:32:35;;;;;;;10.57;4.50;;;;;;;22.74;56.06;94735.53;5106243;28;20410;-84
2023/07/21 01:35:01;;;;;;;8.25;4.80;;;;;;;22.77;56.28;94742.91;5106834;28;20043;-83
2023/07/21 01:37:27;;;;;;;7.40;4.10;;;;;;;22.73;56.11;94742.41;5122474;28;20036;-83
2023/07/21 01:39:53;;;;;;;9.40;4.40;;;;;;;22.73;56.14;94741.66;5122084;28;20506;-83
2023/07/21 01:42:19;;;;;;;9.70;4.53;;;;;;;22.75;55.96;94753.84;5110656;28;20530;-84
2023/07/21 01:44:44;;;;;;;6.75;4.50;;;;;;;22.74;56.09;94766.34;5122473;28;20047;-83
2023/07/21 01:47:10;;;;;;;9.40;4.50;;;;;;;22.74;55.69;94765.59;5106975;28;20102;-83
2023/07/21 01:49:35;;;;;;;8.10;4.38;;;;;;;22.77;55.79;94773.72;5106587;28;20502;-83
2023/07/21 01:52:01;;;;;;;7.93;4.47;;;;;;;22.79;55.54;94787.97;5107009;28;20076;-83
2023/07/21 01:54:36;;;;;;;4.78;3.78;;;;;;;22.78;55.23;94785.69;5107392;28;20406;-83
2023/07/21 01:57:06;;;;;;;7.35;4.30;;;;;;;22.75;55.54;94781.88;5109161;28;20023;-83
2023/07/21 01:59:31;;;;;;;7.97;4.00;;;;;;;22.72;55.63;94787.78;5109568;28;20118;-83
2023/07/21 02:01:57;;;;;;;6.10;4.50;;;;;;;22.71;55.36;94803.81;5112293;28;20639;-84
2023/07/21 02:04:23;;;;;;;5.28;4.00;;;;;;;22.71;55.30;94797.44;5110662;28;20031;-83
2023/07/21 02:06:50;;;;;;;7.05;4.38;;;;;;;22.68;55.30;94790.09;5110233;28;20031;-84
2023/07/21 02:09:15;;;;;;;5.60;3.92;;;;;;;22.65;55.47;94797.50;5110911;28;20038;-84
2023/07/21 02:11:41;;;;;;;6.78;4.47;;;;;;;22.65;55.76;94789.09;5110472;28;20102;-84
2023/07/21 02:14:07;;;;;;;6.00;4.20;;;;;;;22.65;55.71;94779.91;5109930;28;20078;-82
2023/07/21 02:16:32;;;;;;;5.85;4.30;;;;;;;22.62;55.78;94775.38;5110103;28;20522;-83
2023/07/21 02:18:58;;;;;;;8.95;4.60;;;;;;;22.60;55.95;94783.53;5109888;28;20031;-83
2023/07/21 02:21:23;;;;;;;7.95;4.40;;;;;;;22.61;55.90;94776.66;5110116;28;20464;-83
2023/07/21 02:23:48;;;;;;;7.07;4.18;;;;;;;22.57;56.06;94776.16;5110057;28;20024;-84
2023/07/21 02:26:14;;;;;;;5.63;4.38;;;;;;;22.61;55.79;94782.25;5110292;28;20016;-84
2023/07/21 02:28:39;;;;;;;7.22;4.35;;;;;;;22.59;55.58;94773.59;5109783;28;20111;-84
2023/07/21 02:31:06;;;;;;;7.32;4.38;;;;;;;22.59;55.67;94779.94;5109796;28;20397;-84
2023/07/21 02:33:32;;;;;;;6.38;4.22;;;;;;;22.61;55.90;94771.81;5113007;28;20023;-84
2023/07/21 02:36:00;;;;;;;8.20;4.25;;;;;;;22.59;56.10;94771.53;5110522;28;20111;-85
2023/07/21 02:38:26;;;;;;;6.45;4.90;;;;;;;22.51;56.01;94774.16;5109709;28;20562;-84
2023/07/21 02:40:51;;;;;;;8.10;4.60;;;;;;;22.58;56.39;94784.03;5109925;28;20027;-84
2023/07/21 02:43:17;;;;;;;10.85;5.57;;;;;;;22.48;56.38;94769.59;5110279;27;20058;-84
2023/07/21 02:45:53;;;;;;;7.20;5.15;;;;;;;22.39;56.84;94767.09;5110025;28;20031;-84
2023/07/21 02:48:20;;;;;;;7.43;4.65;;;;;;;22.41;56.78;94786.94;5125737;27;20106;-84
2023/07/21 02:50:51;;;;;;;8.90;5.43;;;;;;;22.39;56.66;94783.91;5109968;28;20028;-84
2023/07/21 02:53:17;;;;;;;9.27;4.70;;;;;;;22.41;56.69;94792.53;5109201;28;20077;-84
2023/07/21 02:55:44;;;;;;;7.20;4.75;;;;;;;22.42;57.05;94793.31;5109740;28;20497;-84
2023/07/21 02:58:12;;;;;;;7.47;5.30;;;;;;;22.40;57.06;94793.06;5107408;28;20045;-85
2023/07/21 03:00:37;;;;;;;8.07;5.05;;;;;;;22.41;57.42;94798.16;5109688;28;20482;-85
2023/07/21 03:03:04;;;;;;;8.70;4.85;;;;;;;22.38;57.16;94790.03;5125645;27;20128;-84
2023/07/21 03:05:29;;;;;;;7.70;4.75;;;;;;;22.37;57.33;94789.28;5126372;27;20043;-85
2023/07/21 03:07:56;;;;;;;8.15;5.28;;;;;;;22.34;57.25;94795.16;5108583;28;20139;-84
2023/07/21 03:10:22;;;;;;;8.73;5.22;;;;;;;22.34;57.39;94798.69;5108763;28;20023;-84
2023/07/21 03:12:47;;;;;;;9.63;5.22;;;;;;;22.37;57.50;94802.53;5109413;28;20020;-84
2023/07/21 03:15:13;;;;;;;7.70;5.10;;;;;;;22.38;57.27;94799.19;5108683;28;20028;-84
2023/07/21 03:17:38;;;;;;;7.82;5.32;;;;;;;22.39;57.36;94797.16;5109107;28;20127;-84
2023/07/21 03:20:11;;;;;;;9.32;5.28;;;;;;;22.36;57.48;94800.97;5108567;28;20091;-85
2023/07/21 03:22:36;;;;;;;8.07;4.78;;;;;;;22.34;57.51;94807.09;5109482;27;20019;-84
2023/07/21 03:25:05;;;;;;;8.45;5.18;;;;;;;22.37;57.32;94800.47;5113725;28;20032;-84
2023/07/21 03:27:30;;;;;;;6.63;4.72;;;;;;;22.38;56.94;94806.84;5110125;28;20055;-84
2023/07/21 03:29:56;;;;;;;8.45;5.22;;;;;;;22.36;56.83;94807.34;5109396;28;20477;-86
2023/07/21 03:32:21;;;;;;;9.90;4.90;;;;;;;22.41;57.05;94808.59;5108551;28;20016;-84
2023/07/21 03:34:52;;;;;;;10.15;5.22;;;;;;;22.43;56.76;94815.22;5109158;27;20035;-83
2023/07/21 03:37:17;;;;;;;8.57;5.35;;;;;;;22.42;56.67;94816.50;5108526;28;20486;-84
2023/07/21 03:39:46;;;;;;;6.22;4.85;;;;;;;22.36;56.91;94818.53;5108823;28;20034;-84
2023/07/21 03:42:11;;;;;;;15.05;6.03;;;;;;;22.37;56.80;94816.53;5108401;28;20509;-85
2023/07/21 03:44:37;;;;;;;8.15;5.13;;;;;;;22.36;57.02;94821.34;5108813;28;20049;-80
2023/07/21 03:47:05;;;;;;;9.40;4.80;;;;;;;22.37;57.03;94814.47;5108585;28;20506;-80
2023/07/21 03:49:30;;;;;;;8.88;5.13;;;;;;;22.38;56.67;94818.81;5107963;28;20028;-80
2023/07/21 03:51:56;;;;;;;11.25;5.50;;;;;;;22.36;56.77;94821.34;5108423;28;20051;-80
2023/07/21 03:54:22;;;;;;;11.02;5.90;;;;;;;22.36;56.96;94817.78;5107772;28;20111;-80
2023/07/21 03:56:47;;;;;;;7.22;4.63;;;;;;;22.36;56.94;94823.38;5108551;28;20054;-80
2023/07/21 03:59:13;;;;;;;11.02;4.82;;;;;;;22.35;56.94;94833.81;5107941;27;20490;-80
2023/07/21 04:01:38;;;;;;;8.82;5.20;;;;;;;22.34;57.10;94840.69;5108620;28;20107;-81
2023/07/21 04:04:04;;;;;;;10.40;5.50;;;;;;;22.34;56.75;94840.69;5108253;28;20375;-82
2023/07/21 04:06:29;;;;;;;11.15;5.60;;;;;;;22.33;56.88;94830.78;5109996;28;20031;-85
2023/07/21 04:08:54;;;;;;;9.68;5.25;;;;;;;22.35;57.03;94838.66;5109848;28;20028;-84
2023/07/21 04:11:20;;;;;;;12.45;5.25;;;;;;;22.35;56.57;94845.03;5107608;28;20103;-85
2023/07/21 04:13:46;;;;;;;12.57;5.63;;;;;;;22.35;56.55;94850.63;5108880;28;20367;-85
2023/07/21 04:16:11;;;;;;;14.73;5.68;;;;;;;22.30;56.69;94845.81;5112316;28;20093;-82
2023/07/21 04:18:38;;;;;;;11.60;5.32;;;;;;;22.30;56.31;94843.00;5123786;27;20070;-83
2023/07/21 04:21:04;;;;;;;12.15;5.03;;;;;;;22.34;55.75;94854.72;5108051;28;20081;-83
2023/07/21 04:23:29;;;;;;;8.55;4.90;;;;;;;22.31;55.85;94854.97;5107676;28;20051;-84
2023/07/21 04:25:54;;;;;;;10.10;4.80;;;;;;;22.31;55.89;94854.97;5108327;28;20023;-82
2023/07/21 04:28:20;;;;;;;7.97;5.13;;;;;;;22.30;56.04;94851.41;5107533;28;20486;-81
2023/07/21 04:30:47;;;;;;;10.43;4.65;;;;;;;22.30;55.86;94851.41;5107829;28;20489;-82
2023/07/21 04:33:13;;;;;;;7.15;4.40;;;;;;;22.32;55.92;94856.50;5107332;28;20024;-81
2023/07/21 04:35:47;;;;;;;10.30;5.13;;;;;;;22.34;56.18;94854.72;5107798;28;20073;-82
2023/07/21 04:38:14;;;;;;;12.02;5.68;;;;;;;22.33;56.08;94842.00;5106946;28;20402;-82
2023/07/21 04:40:41;;;;;;;7.20;4.80;;;;;;;22.39;56.07;94850.34;5107626;28;20477;-82
2023/07/21 04:43:07;;;;;;;9.02;5.18;;;;;;;22.42;56.29;94855.69;5107215;28;20042;-82
2023/07/21 04:45:32;;;;;;;9.10;5.60;;;;;;;22.42;56.13;94855.69;5107172;28;20486;-81
2023/07/21 04:47:58;;;;;;;11.38;5.70;;;;;;;22.43;56.22;94850.84;5107120;28;20051;-83
2023/07/21 04:50:23;;;;;;;13.20;5.95;;;;;;;22.46;56.29;94856.16;5105115;28;20023;-83
2023/07/21 04:52:48;;;;;;;12.07;6.30;;;;;;;22.51;56.00;94857.41;5107592;28;20112;-82
2023/07/21 04:55:14;;;;;;;16.98;11.00;;;;;;;22.52;55.74;94850.53;5106552;28;20031;-82
2023/07/21 04:57:40;;;;;;;9.38;5.70;;;;;;;22.58;55.81;94856.09;5107151;28;20062;-81
2023/07/21 05:00:13;;;;;;;13.45;5.72;;;;;;;22.60;55.63;94856.38;5106987;28;20020;-82
2023/07/21 05:02:39;;;;;;;9.77;5.65;;;;;;;22.65;55.68;94858.34;5106886;28;20038;-81
2023/07/21 05:05:04;;;;;;;9.45;5.70;;;;;;;22.65;55.68;94856.34;5107873;28;20032;-82
2023/07/21 05:07:30;;;;;;;9.02;5.70;;;;;;;22.66;55.64;94857.84;5124084;27;20103;-82
2023/07/21 05:09:55;;;;;;;10.63;5.38;;;;;;;22.68;55.55;94866.50;5109774;28;20027;-85
2023/07/21 05:12:23;;;;;;;9.63;5.78;;;;;;;22.71;55.67;94871.06;5106880;28;20505;-85
2023/07/21 05:14:48;;;;;;;10.43;5.53;;;;;;;22.71;55.42;94865.47;5105526;28;20505;-87
2023/07/21 05:17:14;;;;;;;10.07;5.72;;;;;;;22.73;55.39;94868.50;5107270;28;20040;-81
2023/07/21 05:19:40;;;;;;;11.43;5.43;;;;;;;22.75;55.33;94868.72;5108252;28;20016;-86
2023/07/21 05:22:05;;;;;;;11.57;5.90;;;;;;;22.77;55.38;94871.03;5107275;28;20095;-84
2023/07/21 05:24:30;;;;;;;9.75;5.72;;;;;;;22.80;55.58;94865.13;5122811;27;20032;-89
2023/07/21 05:26:56;;;;;;;11.15;5.50;;;;;;;22.82;55.65;94867.41;5105917;28;20053;-89
2023/07/21 05:29:21;;;;;;;8.25;5.68;;;;;;;22.90;55.69;94871.22;5106012;28;20051;-89
2023/07/21 05:31:47;;;;;;;9.93;6.18;;;;;;;22.92;55.46;94873.50;5107239;28;20019;-86
2023/07/21 05:34:13;;;;;;;7.25;5.60;;;;;;;22.97;55.29;94870.66;5122370;27;20711;-88
2023/07/21 05:36:38;;;;;;;6.97;4.80;;;;;;;22.98;54.74;94868.63;5122657;27;20028;-89
2023/07/21 05:39:05;;;;;;;9.07;5.15;;;;;;;22.98;54.52;94866.56;5106842;28;20023;-87
2023/07/21 05:41:30;;;;;;;6.55;5.03;;;;;;;23.06;54.29;94872.41;5121892;28;20106;-85
2023/07/21 05:43:55;;;;;;;10.95;5.30;;;;;;;23.05;54.07;94874.44;5106630;28;20099;-86
2023/07/21 05:46:21;;;;;;;9.18;4.70;;;;;;;23.08;53.49;94880.28;5107584;28;20110;-83
2023/07/21 05:48:46;;;;;;;10.13;5.07;;;;;;;23.12;53.74;94886.38;5106410;28;20024;-84
2023/07/21 05:51:12;;;;;;;11.25;6.07;;;;;;;23.16;53.63;94884.78;5106007;28;20111;-83
2023/07/21 05:53:38;;;;;;;16.77;6.95;;;;;;;23.18;53.87;94882.25;5104883;28;20027;-83
2023/07/21 05:56:08;;;;;;;7.07;5.05;;;;;;;23.23;53.68;94886.28;5107696;28;20028;-83
2023/07/21 05:58:36;;;;;;;8.82;4.80;;;;;;;23.28;53.15;94882.66;5105734;28;20035;-79
2023/07/21 06:01:02;;;;;;;12.48;5.10;;;;;;;23.27;53.04;94876.28;5105302;28;20019;-78
2023/07/21 06:03:28;;;;;;;8.95;4.60;;;;;;;23.39;52.95;94874.16;5104518;28;20087;-81
2023/07/21 06:05:53;;;;;;;7.03;4.97;;;;;;;23.41;53.04;94874.41;5106478;28;20044;-79
2023/07/21 06:08:19;;;;;;;7.60;4.78;;;;;;;23.47;52.93;94882.78;5105736;28;20059;-80
2023/07/21 06:10:44;;;;;;;7.15;4.72;;;;;;;23.50;52.87;94876.84;5104997;28;20482;-80
2023/07/21 06:13:10;;;;;;;9.00;4.68;;;;;;;23.57;53.18;94875.53;5105779;28;20016;-82
2023/07/21 06:15:36;;;;;;;7.97;5.40;;;;;;;23.64;53.30;94877.03;5104428;28;20018;-79
2023/07/21 06:18:05;;;;;;;9.18;5.15;;;;;;;23.69;53.17;94868.56;5106169;28;20030;-79
2023/07/21 06:20:31;;;;;;;11.02;5.43;;;;;;;23.77;53.27;94872.31;5105509;28;20024;-80
2023/07/21 06:22:57;;;;;;;7.60;4.95;;;;;;;23.79;53.15;94861.28;5121697;28;20031;-80
2023/07/21 06:25:23;;;;;;;5.97;4.78;;;;;;;23.85;52.58;94866.84;5120138;28;20022;-80
2023/07/21 06:27:50;;;;;;;6.75;4.72;;;;;;;23.94;52.41;94863.69;5105709;28;20211;-79
2023/07/21 06:30:16;;;;;;;7.30;4.57;;;;;;;23.94;52.78;94852.47;5105597;28;20019;-79
2023/07/21 06:32:41;;;;;;;8.05;5.55;;;;;;;24.03;52.54;94849.31;5106007;28;20062;-79
2023/07/21 06:35:08;;;;;;;6.50;4.50;;;;;;;24.06;52.43;94850.31;5121739;28;20483;-79
2023/07/21 06:37:33;;;;;;;6.15;5.15;;;;;;;24.19;52.27;94853.19;5105846;28;20028;-79
2023/07/21 06:40:01;;;;;;;9.20;4.68;;;;;;;24.25;51.97;94847.50;5104655;28;20482;-80
2023/07/21 06:42:27;;;;;;;5.72;4.10;;;;;;;24.27;51.81;94845.72;5108931;28;20439;-82
2023/07/21 06:44:52;;;;;;;9.32;4.68;;;;;;;24.34;51.59;94849.97;5109648;28;20115;-80
2023/07/21 06:47:18;;;;;;;12.35;6.00;;;;;;;24.40;51.49;94847.88;5111278;28;20509;-81
2023/07/21 06:49:43;;;;;;;27.27;5.75;;;;;;;24.47;51.48;94840.88;5110378;28;20051;-80
2023/07/21 06:52:09;;;;;;;11.88;5.88;;;;;;;24.64;50.76;94849.84;5109792;28;20066;-80
2023/07/21 06:54:35;;;;;;;9.80;6.13;;;;;;;24.72;50.39;94856.38;5108303;28;20244;-80
2023/07/21 06:57:00;;;;;;;7.85;5.20;;;;;;;24.75;50.61;94846.88;5108472;28;20421;-80
2023/07/21 06:59:26;;;;;;;10.30;6.18;;;;;;;24.76;50.81;94842.75;5108610;28;20051;-80
2023/07/21 07:01:51;;;;;;;8.27;5.13;;;;;;;24.87;50.85;94861.53;5109219;28;20500;-80
2023/07/21 07:04:17;;;;;;;7.45;5.00;;;;;;;24.94;50.26;94855.28;5108457;28;20122;-80
2023/07/21 07:06:42;;;;;;;7.03;4.40;;;;;;;24.98;49.99;94855.75;5109295;28;20167;-79
2023/07/21 07:09:08;;;;;;;10.32;5.13;;;;;;;25.03;50.07;94852.09;5090549;28;20456;-79
2023/07/21 07:11:34;;;;;;;9.85;4.53;;;;;;;25.17;49.98;94861.34;5108972;28;20062;-81
2023/07/21 07:13:59;;;;;;;7.65;4.15;;;;;;;25.21;49.98;94853.38;5107419;28;20436;-79
2023/07/21 07:16:25;;;;;;;8.68;4.95;;;;;;;25.28;49.72;94854.78;5108272;28;20043;-81
2023/07/21 07:18:51;;;;;;;19.92;7.90;;;;;;;25.39;49.75;94851.78;5109028;28;20107;-80
2023/07/21 07:21:16;;;;;;;13.82;6.78;;;;;;;25.54;49.58;94848.47;5124042;27;20024;-79
2023/07/21 07:23:41;;;;;;;9.23;5.00;;;;;;;25.59;49.32;94848.38;5108884;28;20030;-79
2023/07/21 07:26:07;;;;;;;9.57;4.70;;;;;;;25.69;49.38;94852.28;5108321;28;20405;-80
2023/07/21 07:28:32;;;;;;;10.18;5.10;;;;;;;25.76;49.31;94847.34;5106788;28;20228;-79
2023/07/21 07:31:04;;;;;;;9.23;5.38;;;;;;;25.87;48.98;94849.97;5108747;28;20157;-79
2023/07/21 07:33:29;;;;;;;8.55;4.68;;;;;;;26.02;47.66;94846.59;5108153;28;20361;-79
2023/07/21 07:35:54;;;;;;;8.38;4.95;;;;;;;26.12;47.58;94842.81;5124799;27;20062;-80
2023/07/21 07:38:32;;;;;;;9.00;5.32;;;;;;;26.18;47.52;94846.25;5110654;28;20031;-80
2023/07/21 07:41:03;;;;;;;9.07;5.10;;;;;;;26.23;47.32;94836.19;5123354;27;20517;-80
2023/07/21 07:43:29;;;;;;;9.30;5.20;;;;;;;26.38;47.02;94844.84;5106785;28;20609;-80
2023/07/21 07:45:56;;;;;;;9.00;5.40;;;;;;;26.39;47.22;94840.72;5108466;28;20553;-79
2023/07/21 07:48:22;;;;;;;8.38;4.70;;;;;;;26.43;47.22;94841.16;5107136;28;20076;-80
2023/07/21 07:50:47;;;;;;;8.85;5.70;;;;;;;26.54;47.07;94845.81;5108005;28;20036;-84
2023/07/21 07:53:14;;;;;;;9.30;4.68;;;;;;;26.67;46.62;94842.22;5108301;28;20031;-85
2023/07/21 07:55:40;;;;;;;8.98;4.72;;;;;;;26.77;46.41;94842.50;5124707;27;20031;-86
2023/07/21 07:58:06;;;;;;;11.52;4.65;;;;;;;26.91;46.32;94841.91;5128044;27;20165;-81
2023/07/21 08:00:33;;;;;;;8.95;4.72;;;;;;;27.03;45.45;94845.25;5125450;27;20079;-83
2023/07/21 08:02:59;;;;;;;7.30;4.82;;;;;;;27.15;45.21;94842.94;5089819;28;20023;-82
2023/07/21 08:05:24;;;;;;;7.60;5.10;;;;;;;27.22;45.17;94843.00;5108563;28;20023;-83
2023/07/21 08:07:50;;;;;;;9.02;5.10;;;;;;;27.39;44.56;94844.66;5106359;28;20080;-83
2023/07/21 08:10:15;;;;;;;6.90;4.70;;;;;;;27.48;44.26;94838.53;5108272;28;20545;-83
2023/07/21 08:12:40;;;;;;;7.68;4.80;;;;;;;27.61;42.85;94838.44;5107421;28;20023;-82
2023/07/21 08:15:06;;;;;;;6.88;4.45;;;;;;;27.72;42.16;94835.38;5107946;28;20099;-85
2023/07/21 08:17:36;;;;;;;8.05;4.60;;;;;;;27.75;42.27;94841.97;5106155;28;20322;-84
2023/07/21 08:20:01;;;;;;;7.00;4.20;;;;;;;27.78;42.22;94850.09;5110817;28;20020;-84
2023/07/21 08:22:27;;;;;;;7.40;4.68;;;;;;;27.86;42.06;94838.84;5107770;28;20390;-85
2023/07/21 08:24:52;;;;;;;8.48;4.43;;;;;;;27.97;40.99;94840.63;5107911;28;20023;-83
2023/07/21 08:27:20;;;;;;;8.23;4.43;;;;;;;28.00;41.56;94839.50;5110245;28;20020;-83
2023/07/21 08:29:46;;;;;;;7.40;4.13;;;;;;;28.03;41.49;94838.38;5107842;28;20027;-82
2023/07/21 08:32:11;;;;;;;9.88;4.80;;;;;;;28.13;41.01;94835.81;5123727;27;20035;-82
2023/07/21 08:34:37;;;;;;;7.22;4.68;;;;;;;28.20;41.18;94838.69;5107190;28;20023;-81
2023/07/21 08:37:03;;;;;;;12.38;6.25;;;;;;;28.35;39.81;94834.47;5107445;28;20452;-80
2023/07/21 08:39:30;;;;;;;10.07;4.88;;;;;;;28.44;39.06;94840.34;5106808;28;20062;-81
2023/07/21 08:41:56;;;;;;;8.20;4.40;;;;;;;28.49;39.12;94835.84;5122933;27;20081;-80
2023/07/21 08:44:22;;;;;;;9.38;5.40;;;;;;;28.64;39.75;94832.31;5105768;28;20028;-83
2023/07/21 08:46:48;;;;;;;11.10;4.78;;;;;;;28.72;38.41;94828.19;5105517;28;20556;-80
2023/07/21 08:49:17;;;;;;;6.03;3.42;;;;;;;28.89;36.36;94827.69;5107207;28;20031;-82
2023/07/21 08:51:43;;;;;;;11.82;4.57;;;;;;;28.94;36.26;94821.13;5106732;28;20079;-82
2023/07/21 08:54:09;;;;;;;8.55;4.32;;;;;;;29.06;36.61;94824.34;5105875;28;20055;-82
2023/07/21 08:56:35;;;;;;;9.68;4.38;;;;;;;29.23;36.73;94826.66;5106865;28;20024;-82
2023/07/21 08:59:00;;;;;;;7.93;4.43;;;;;;;29.31;36.65;94833.09;5106857;28;20023;-82
2023/07/21 09:01:26;;;;;;;10.93;3.97;;;;;;;29.43;35.06;94831.41;5122309;27;20085;-81
2023/07/21 09:03:51;;;;;;;6.88;3.80;;;;;;;29.53;34.95;94831.59;5106227;28;20501;-80
2023/07/21 09:06:17;;;;;;;6.45;3.50;;;;;;;29.59;35.00;94832.94;5106537;28;20414;-87
2023/07/21 09:08:45;;;;;;;10.82;4.22;;;;;;;29.71;35.59;94822.00;5122394;27;20049;-85
2023/07/21 09:11:11;;;;;;;9.55;4.15;;;;;;;29.78;35.56;94821.22;5106956;28;20360;-83
2023/07/21 09:13:36;;;;;;;7.32;3.85;;;;;;;29.94;35.49;94826.88;5106301;28;20020;-83
2023/07/21 09:16:05;;;;;;;9.00;4.35;;;;;;;30.04;35.62;94825.72;5106884;28;20510;-83
2023/07/21 09:18:41;;;;;;;8.35;4.20;;;;;;;30.18;35.33;94829.13;5107829;28;20091;-83
2023/07/21 09:21:07;;;;;;;9.52;5.43;;;;;;;30.32;35.28;94816.22;5123364;27;20032;-81
2023/07/21 09:23:33;;;;;;;10.55;4.85;;;;;;;30.53;35.10;94815.22;5108302;28;20020;-82
2023/07/21 09:25:59;;;;;;;9.05;4.22;;;;;;;30.66;34.82;94812.13;5105383;28;20023;-83
2023/07/21 09:28:44;;;;;;;8.30;4.35;;;;;;;30.84;34.62;94810.19;5107055;28;20181;-83
2023/07/21 09:31:11;;;;;;;9.40;4.65;;;;;;;31.04;34.48;94808.38;5122041;27;20172;-84
2023/07/21 09:33:41;;;;;;;8.57;4.95;;;;;;;31.16;33.35;94807.34;5105314;28;20024;-83
2023/07/21 09:36:09;;;;;;;8.77;4.13;;;;;;;31.32;33.64;94808.03;5105424;28;20269;-82
2023/07/21 09:38:36;;;;;;;7.75;4.10;;;;;;;31.41;33.61;94812.31;5104600;28;20583;-83
2023/07/21 09:41:02;;;;;;;11.93;4.78;;;;;;;31.60;33.12;94804.03;5106917;28;20039;-81
2023/07/21 09:43:30;;;;;;;8.95;4.45;;;;;;;31.66;33.27;94806.63;5121727;28;20055;-85
2023/07/21 09:45:58;;;;;;;7.05;4.50;;;;;;;31.81;33.12;94812.19;5105344;28;20030;-81
2023/07/21 09:48:24;;;;;;;12.05;4.75;;;;;;;31.94;33.00;94800.53;5121871;28;20027;-81
2023/07/21 09:50:49;;;;;;;8.88;3.97;;;;;;;32.11;32.78;94805.44;5106514;28;20028;-81
2023/07/21 09:53:19;;;;;;;6.57;4.00;;;;;;;32.27;32.09;94802.44;5122039;28;20020;-83
2023/07/21 09:55:45;;;;;;;6.55;4.30;;;;;;;32.41;32.12;94795.88;5121316;28;20024;-83
2023/07/21 09:58:12;;;;;;;7.38;4.55;;;;;;;32.54;32.29;94797.63;5122345;28;20528;-82
2023/07/21 10:00:39;;;;;;;8.80;4.10;;;;;;;32.69;32.15;94805.19;5104646;28;20477;-82
2023/07/21 10:03:07;;;;;;;7.60;3.95;;;;;;;32.87;30.93;94801.00;5122207;28;20062;-81
2023/07/21 10:05:34;;;;;;;7.45;3.80;;;;;;;33.03;31.15;94793.78;5121191;28;20131;-81
2023/07/21 10:08:02;;;;;;;8.93;4.45;;;;;;;33.25;30.59;94791.91;5124440;28;20382;-84
2023/07/21 10:10:28;;;;;;;7.90;4.13;;;;;;;33.35;30.55;94791.97;5121664;28;20111;-86
2023/07/21 10:12:53;;;;;;;9.18;4.45;;;;;;;33.47;30.23;94787.25;5106532;28;20103;-80
2023/07/21 10:15:29;;;;;;;8.73;4.70;;;;;;;33.62;29.92;94782.66;5105713;28;20036;-82
2023/07/21 10:18:00;;;;;;;8.85;4.75;;;;;;;33.79;29.69;94785.41;5109940;28;20038;-82
2023/07/21 10:20:42;;;;;;;6.57;4.50;;;;;;;33.87;29.52;94786.00;5110382;28;20446;-82
2023/07/21 10:23:08;;;;;;;9.00;4.80;;;;;;;34.01;29.93;94783.53;5110478;28;20020;-82
2023/07/21 10:25:47;;;;;;;8.27;4.60;;;;;;;34.22;29.26;94780.81;5111780;28;20027;-82
2023/07/21 10:28:15;;;;;;;8.32;4.25;;;;;;;34.34;29.32;94783.84;5110578;28;20055;-82
2023/07/21 10:30:41;;;;;;;9.95;4.50;;;;;;;34.59;28.84;94789.28;5109686;27;20106;-83
2023/07/21 10:33:11;;;;;;;8.27;4.00;;;;;;;34.72;28.37;94785.94;5126351;27;20024;-82
2023/07/21 10:35:37;;;;;;;9.02;3.88;;;;;;;34.81;28.00;94781.56;5109647;28;20377;-82
2023/07/21 10:38:15;;;;;;;7.20;4.47;;;;;;;35.01;27.64;94780.22;5110604;28;20031;-82
2023/07/21 10:40:41;;;;;;;9.95;4.18;;;;;;;35.09;27.12;94769.34;5108550;28;20512;-82
2023/07/21 10:43:07;;;;;;;10.63;4.53;;;;;;;35.27;27.83;94780.56;5125478;27;20031;-81
2023/07/21 10:45:32;;;;;;;7.75;4.25;;;;;;;35.36;27.63;94771.22;5109915;28;20030;-83
2023/07/21 10:48:11;;;;;;;10.13;4.80;;;;;;;35.58;27.26;94769.19;5124794;27;20059;-82
2023/07/21 10:50:40;;;;;;;9.60;4.85;;;;;;;35.71;26.82;94770.78;5108622;28;20027;-82
2023/07/21 10:53:05;;;;;;;9.52;4.50;;;;;;;35.83;26.69;94758.06;5108162;28;20023;-83
2023/07/21 10:55:31;;;;;;;6.32;3.92;;;;;;;35.95;26.69;94760.28;5109519;28;20421;-83
2023/07/21 10:57:57;;;;;;;9.82;4.82;;;;;;;36.10;26.47;94759.88;5112965;28;20020;-83
2023/07/21 11:00:22;;;;;;;10.00;4.72;;;;;;;36.25;26.01;94765.19;5109280;28;20055;-82
2023/07/21 11:02:53;;;;;;;11.63;4.80;;;;;;;36.43;26.02;94762.81;5125234;27;20504;-83
2023/07/21 11:05:19;;;;;;;11.10;4.78;;;;;;;36.51;26.44;94748.28;5124428;27;20016;-82
2023/07/21 11:07:44;;;;;;;6.68;4.13;;;;;;;36.68;25.83;94754.44;5109590;28;20036;-81
2023/07/21 11:10:10;;;;;;;13.10;4.10;;;;;;;36.73;25.91;94749.72;5109062;28;20031;-83
2023/07/21 11:12:36;;;;;;;12.40;4.40;;;;;;;36.83;25.16;94746.78;5109025;28;20019;-82
2023/07/21 11:15:03;;;;;;;12.70;4.75;;;;;;;36.92;25.71;94740.22;5124439;27;20304;-83
2023/07/21 11:17:32;;;;;;;9.77;4.47;;;;;;;37.10;25.69;94738.50;5108425;28;20074;-82
2023/07/21 11:20:05;;;;;;;10.88;5.03;;;;;;;37.29;25.59;94746.13;5125281;27;20095;-83
2023/07/21 11:22:31;;;;;;;8.82;3.92;;;;;;;37.43;23.51;94735.56;5108275;28;20034;-83
2023/07/21 11:25:10;;;;;;;10.98;4.03;;;;;;;37.55;23.54;94744.16;5125245;27;20016;-82
2023/07/21 11:27:41;;;;;;;10.98;4.30;;;;;;;37.68;22.81;94745.66;5108728;28;20073;-82
2023/07/21 11:30:07;;;;;;;9.20;3.55;;;;;;;37.68;22.27;94751.38;5109503;28;20019;-82